createdAt,value
2023-03-26T00:01:28.382Z,6.23
2023-03-26T00:03:58.110Z,6.57
2023-03-26T00:06:31.067Z,6.73
2023-03-26T00:08:59.130Z,7.03
2023-03-26T00:11:28.774Z,8.10
2023-03-26T00:13:57.991Z,8.23
2023-03-26T00:16:32.269Z,8.67
2023-03-26T00:19:01.468Z,5.77
2023-03-26T00:21:30.627Z,8.10
2023-03-26T00:24:01.035Z,7.43
2023-03-26T00:26:29.833Z,8.67
2023-03-26T00:28:58.172Z,8.13
2023-03-26T00:31:26.075Z,7.40
2023-03-26T00:33:55.976Z,10.60
2023-03-26T00:36:28.120Z,8.73
2023-03-26T00:38:55.938Z,8.40
2023-03-26T00:41:31.174Z,8.03
2023-03-26T00:44:00.535Z,8.53
2023-03-26T00:46:30.705Z,8.63
2023-03-26T00:49:00.837Z,8.37
2023-03-26T00:51:28.972Z,9.10
2023-03-26T00:53:57.910Z,9.23
2023-03-26T00:56:26.053Z,9.07
2023-03-26T00:58:53.563Z,8.70
2023-03-26T01:01:28.981Z,9.20
2023-03-26T01:04:08.814Z,9.13
2023-03-26T01:06:42.398Z,8.80
2023-03-26T01:09:21.968Z,9.40
2023-03-26T01:11:50.752Z,10.13
2023-03-26T01:14:21.484Z,10.40
2023-03-26T01:16:55.236Z,5.23
2023-03-26T01:19:29.827Z,10.73
2023-03-26T01:21:58.999Z,9.33
2023-03-26T01:24:27.347Z,9.83
2023-03-26T01:27:09.691Z,9.20
2023-03-26T01:29:43.294Z,10.17
2023-03-26T01:32:44.214Z,10.30
2023-03-26T01:35:21.524Z,7.23
2023-03-26T01:38:13.647Z,11.07
2023-03-26T01:40:55.082Z,10.07
2023-03-26T01:43:29.116Z,12.03
2023-03-26T01:46:00.047Z,10.13
2023-03-26T01:48:47.300Z,10.30
2023-03-26T01:51:29.749Z,8.50
2023-03-26T01:53:58.492Z,11.63
2023-03-26T01:56:29.750Z,10.50
2023-03-26T01:59:39.131Z,10.33
2023-03-26T02:02:31.491Z,11.47
2023-03-26T02:05:17.411Z,10.57
2023-03-26T02:07:56.409Z,12.77
2023-03-26T02:10:31.897Z,11.40
2023-03-26T02:12:59.872Z,11.30
2023-03-26T02:15:27.617Z,13.27
2023-03-26T02:17:55.102Z,9.37
2023-03-26T02:20:22.678Z,12.17
2023-03-26T02:22:50.172Z,11.27
2023-03-26T02:25:21.732Z,9.30
2023-03-26T02:27:50.697Z,10.33
2023-03-26T02:30:21.851Z,9.97
2023-03-26T02:32:52.483Z,9.97
2023-03-26T02:35:22.161Z,10.77
2023-03-26T02:37:51.231Z,8.90
2023-03-26T02:40:21.279Z,7.87
2023-03-26T02:42:49.617Z,9.37
2023-03-26T02:45:17.191Z,4.63
2023-03-26T02:47:46.283Z,9.20
2023-03-26T02:50:13.759Z,6.17
2023-03-26T02:52:41.166Z,8.13
2023-03-26T02:55:09.063Z,8.67
2023-03-26T02:57:36.384Z,9.00
2023-03-26T03:00:14.200Z,7.53
2023-03-26T03:02:41.817Z,5.03
2023-03-26T03:05:09.538Z,6.73
2023-03-26T03:07:38.714Z,8.30
2023-03-26T03:10:08.759Z,6.20
2023-03-26T03:12:37.108Z,4.97
2023-03-26T03:15:04.777Z,5.83
2023-03-26T03:17:32.079Z,7.53
2023-03-26T03:19:59.936Z,4.80
2023-03-26T03:22:27.416Z,5.97
2023-03-26T03:24:57.939Z,5.37
2023-03-26T03:27:26.220Z,5.93
2023-03-26T03:29:55.858Z,5.47
2023-03-26T03:32:23.999Z,5.10
2023-03-26T03:34:52.218Z,5.63
2023-03-26T03:37:20.477Z,6.53
2023-03-26T03:39:47.768Z,6.87
2023-03-26T03:42:15.223Z,5.47
2023-03-26T03:44:42.745Z,3.70
2023-03-26T03:47:13.761Z,4.23
2023-03-26T03:49:41.467Z,5.73
2023-03-26T03:52:08.980Z,5.07
2023-03-26T03:54:36.405Z,5.23
2023-03-26T03:57:03.816Z,5.40
2023-03-26T03:59:31.288Z,2.90
2023-03-26T04:01:58.850Z,6.33
2023-03-26T04:04:26.592Z,4.37
2023-03-26T04:06:53.999Z,4.77
2023-03-26T04:09:21.568Z,6.63
2023-03-26T04:11:50.900Z,5.83
2023-03-26T04:14:18.227Z,6.17
2023-03-26T04:16:46.150Z,5.33
2023-03-26T04:19:14.628Z,6.00
2023-03-26T04:24:11.090Z,5.87
2023-03-26T04:26:38.619Z,5.13
2023-03-26T04:29:12.916Z,5.63
2023-03-26T04:31:40.494Z,5.33
2023-03-26T04:34:14.391Z,5.07
2023-03-26T04:36:42.487Z,5.37
2023-03-26T04:39:13.343Z,5.40
2023-03-26T04:41:40.861Z,5.90
2023-03-26T04:44:08.332Z,4.70
2023-03-26T04:46:35.817Z,3.53
2023-03-26T04:49:03.289Z,3.23
2023-03-26T04:51:38.461Z,5.80
2023-03-26T04:54:08.232Z,4.90
2023-03-26T04:56:59.601Z,7.20
2023-03-26T04:59:35.107Z,5.10
2023-03-26T05:02:05.714Z,5.47
2023-03-26T05:04:37.014Z,4.03
2023-03-26T05:07:04.365Z,4.90
2023-03-26T05:09:32.001Z,5.60
2023-03-26T05:11:59.337Z,4.50
2023-03-26T05:14:26.660Z,5.10
2023-03-26T05:16:54.341Z,3.87
2023-03-26T05:19:22.323Z,5.57
2023-03-26T05:21:49.661Z,2.90
2023-03-26T05:24:17.232Z,3.90
2023-03-26T05:26:45.109Z,4.20
2023-03-26T05:29:13.704Z,4.77
2023-03-26T05:31:41.082Z,2.73
2023-03-26T05:34:08.511Z,3.70
2023-03-26T05:36:36.046Z,4.37
2023-03-26T05:39:04.115Z,3.43
2023-03-26T05:41:31.672Z,5.07
2023-03-26T05:43:59.138Z,2.77
2023-03-26T05:46:27.397Z,2.23
2023-03-26T05:48:55.049Z,5.30
2023-03-26T05:51:23.616Z,2.63
2023-03-26T05:53:50.965Z,3.67
2023-03-26T05:56:18.400Z,3.90
2023-03-26T05:58:46.042Z,4.60
2023-03-26T06:01:19.660Z,2.63
2023-03-26T06:03:47.304Z,4.17
2023-03-26T06:06:17.154Z,5.23
2023-03-26T06:09:01.709Z,4.90
2023-03-26T06:11:32.193Z,4.50
2023-03-26T06:14:00.577Z,4.00
2023-03-26T06:16:28.358Z,1.10
2023-03-26T06:18:57.521Z,4.10
2023-03-26T06:21:26.371Z,3.83
2023-03-26T06:23:54.324Z,3.77
2023-03-26T06:26:21.870Z,5.77
2023-03-26T06:28:49.438Z,3.17
2023-03-26T06:31:19.321Z,3.23
2023-03-26T06:33:47.205Z,3.40
2023-03-26T06:36:14.849Z,3.33
2023-03-26T06:38:42.290Z,2.93
2023-03-26T06:41:10.014Z,2.83
2023-03-26T06:43:39.147Z,2.90
2023-03-26T06:46:06.592Z,3.03
2023-03-26T06:48:34.079Z,5.27
2023-03-26T06:51:01.608Z,2.87
2023-03-26T06:53:28.945Z,2.53
2023-03-26T06:55:56.394Z,2.97
2023-03-26T06:58:23.888Z,2.77
2023-03-26T07:00:54.516Z,4.00
2023-03-26T07:03:23.269Z,3.23
2023-03-26T07:05:50.628Z,5.53
2023-03-26T07:08:18.412Z,3.27
2023-03-26T07:10:46.597Z,2.47
2023-03-26T07:13:15.941Z,1.57
2023-03-26T07:15:43.442Z,2.93
2023-03-26T07:18:10.965Z,3.93
2023-03-26T07:20:38.621Z,3.57
2023-03-26T07:23:06.359Z,1.70
2023-03-26T07:25:34.652Z,3.57
2023-03-26T07:28:24.423Z,2.37
2023-03-26T07:31:13.515Z,2.40
2023-03-26T07:33:53.861Z,3.20
2023-03-26T07:36:41.123Z,2.20
2023-03-26T07:39:28.112Z,4.60
2023-03-26T07:42:17.071Z,2.80
2023-03-26T07:45:03.298Z,2.73
2023-03-26T07:47:34.723Z,3.67
2023-03-26T07:50:03.086Z,2.83
2023-03-26T07:52:30.743Z,3.40
2023-03-26T07:55:01.221Z,3.53
2023-03-26T07:57:51.523Z,3.37
2023-03-26T08:00:29.902Z,3.47
2023-03-26T08:03:12.476Z,3.90
2023-03-26T08:06:15.935Z,3.53
2023-03-26T08:08:57.856Z,2.10
2023-03-26T08:11:38.346Z,1.43
2023-03-26T08:14:27.981Z,2.67
2023-03-26T08:17:24.759Z,3.00
2023-03-26T08:20:07.243Z,2.43
2023-03-26T08:22:41.338Z,2.90
2023-03-26T08:25:37.411Z,3.33
2023-03-26T08:28:14.348Z,2.87
2023-03-26T08:30:42.230Z,2.10
2023-03-26T08:33:14.858Z,2.70
2023-03-26T08:35:42.845Z,2.93
2023-03-26T08:38:15.863Z,1.80
2023-03-26T08:40:54.192Z,2.20
2023-03-26T08:43:27.374Z,1.97
2023-03-26T08:46:16.927Z,3.47
2023-03-26T08:48:59.541Z,2.53
2023-03-26T08:52:05.471Z,2.77
2023-03-26T08:55:07.110Z,2.20
2023-03-26T08:57:53.190Z,2.07
2023-03-26T09:00:55.478Z,2.70
2023-03-26T09:03:47.248Z,5.03
2023-03-26T09:06:47.898Z,2.80
2023-03-26T09:09:52.650Z,1.83
2023-03-26T09:12:20.099Z,1.83
2023-03-26T09:15:05.573Z,3.17
2023-03-26T09:17:55.920Z,2.90
2023-03-26T09:21:11.962Z,2.70
2023-03-26T09:23:58.500Z,1.53
2023-03-26T09:26:36.577Z,2.43
2023-03-26T09:29:07.152Z,2.63
2023-03-26T09:31:57.232Z,2.57
2023-03-26T09:34:32.033Z,1.63
2023-03-26T09:37:29.282Z,2.10
2023-03-26T09:40:19.207Z,3.33
2023-03-26T09:42:54.458Z,2.37
2023-03-26T09:45:48.551Z,2.13
2023-03-26T09:48:41.076Z,1.50
2023-03-26T09:51:11.259Z,2.07
2023-03-26T09:53:53.950Z,2.07
2023-03-26T09:57:10.685Z,2.80
2023-03-26T10:00:01.380Z,3.47
2023-03-26T10:03:06.261Z,3.23
2023-03-26T10:05:51.791Z,3.27
2023-03-26T10:08:33.163Z,2.03
2023-03-26T10:11:07.813Z,2.97
2023-03-26T10:14:04.087Z,2.47
2023-03-26T10:16:37.195Z,2.70
2023-03-26T10:19:42.114Z,3.13
2023-03-26T10:22:31.410Z,2.80
2023-03-26T10:25:22.647Z,3.80
2023-03-26T10:28:11.350Z,2.70
2023-03-26T10:31:00.523Z,3.17
2023-03-26T10:34:28.101Z,2.43
2023-03-26T10:37:10.473Z,2.43
2023-03-26T10:39:43.705Z,2.83
2023-03-26T10:42:19.944Z,2.40
2023-03-26T10:45:12.582Z,3.33
2023-03-26T10:48:10.891Z,2.90
2023-03-26T10:50:44.386Z,3.37
2023-03-26T10:53:50.352Z,3.57
2023-03-26T10:56:34.421Z,3.97
2023-03-26T10:59:07.162Z,1.70
2023-03-26T11:01:42.438Z,3.83
2023-03-26T11:04:20.958Z,4.77
2023-03-26T11:07:27.177Z,3.53
2023-03-26T11:10:08.848Z,3.63
2023-03-26T11:12:45.001Z,3.47
2023-03-26T11:15:15.217Z,4.03
2023-03-26T11:18:06.264Z,1.30
2023-03-26T11:20:36.974Z,3.43
2023-03-26T11:23:18.432Z,2.70
2023-03-26T11:26:05.066Z,2.30
2023-03-26T11:29:03.611Z,3.03
2023-03-26T11:31:54.162Z,3.83
2023-03-26T11:34:27.443Z,4.23
2023-03-26T11:36:57.606Z,3.57
2023-03-26T11:39:28.611Z,4.33
2023-03-26T11:42:11.331Z,4.37
2023-03-26T11:44:44.419Z,3.10
2023-03-26T11:47:16.101Z,3.77
2023-03-26T11:49:45.708Z,3.37
2023-03-26T11:52:15.316Z,4.10
2023-03-26T11:54:43.556Z,3.20
2023-03-26T11:57:16.221Z,4.50
2023-03-26T11:59:57.025Z,3.03
2023-03-26T12:02:39.143Z,3.27
2023-03-26T12:05:20.593Z,3.80
2023-03-26T12:07:55.937Z,5.33
2023-03-26T12:10:25.223Z,3.57
2023-03-26T12:12:56.136Z,3.40
2023-03-26T12:15:24.653Z,3.60
2023-03-26T12:17:56.651Z,4.13
2023-03-26T12:20:27.152Z,4.63
2023-03-26T12:23:01.802Z,3.73
2023-03-26T12:25:30.346Z,4.77
2023-03-26T12:28:14.534Z,5.80
2023-03-26T12:30:54.478Z,4.23
2023-03-26T12:33:28.427Z,2.47
2023-03-26T12:35:58.519Z,4.53
2023-03-26T12:38:34.222Z,4.43
2023-03-26T12:41:08.676Z,5.50
2023-03-26T12:44:48.857Z,3.87
2023-03-26T12:47:54.558Z,5.00
2023-03-26T12:49:35.718Z,3.27
2023-03-26T12:52:16.636Z,5.27
2023-03-26T12:54:57.291Z,3.73
2023-03-26T12:57:39.135Z,7.47
2023-03-26T13:00:41.054Z,3.07
2023-03-26T13:03:28.175Z,4.17
2023-03-26T13:06:16.097Z,3.73
2023-03-26T13:08:49.820Z,3.60
2023-03-26T13:11:42.888Z,3.93
2023-03-26T13:14:16.156Z,4.53
2023-03-26T13:16:59.062Z,3.90
2023-03-26T13:19:39.386Z,3.70
2023-03-26T13:22:37.873Z,5.10
2023-03-26T13:25:22.498Z,3.40
2023-03-26T13:28:06.496Z,5.10
2023-03-26T13:30:58.761Z,4.97
2023-03-26T13:33:36.701Z,3.87
2023-03-26T13:36:23.673Z,4.37
2023-03-26T13:39:18.749Z,4.10
2023-03-26T13:42:01.396Z,5.17
2023-03-26T13:45:13.255Z,4.03
2023-03-26T13:47:46.513Z,3.97
2023-03-26T13:50:27.800Z,4.40
2023-03-26T13:53:16.151Z,3.73
2023-03-26T13:55:52.659Z,2.90
2023-03-26T13:58:36.349Z,4.80
2023-03-26T14:01:18.890Z,4.57
2023-03-26T14:04:10.800Z,4.30
2023-03-26T14:06:46.750Z,5.83
2023-03-26T14:09:32.109Z,4.20
2023-03-26T14:12:27.078Z,4.10
2023-03-26T14:15:16.596Z,3.33
2023-03-26T14:18:07.187Z,3.27
2023-03-26T14:21:05.781Z,4.00
2023-03-26T14:23:36.418Z,4.83
2023-03-26T14:26:34.871Z,3.73
2023-03-26T14:29:31.886Z,5.03
2023-03-26T14:32:44.978Z,5.00
2023-03-26T14:35:28.432Z,4.70
2023-03-26T14:38:14.252Z,4.23
2023-03-26T14:41:17.344Z,4.83
2023-03-26T14:44:22.726Z,6.10
2023-03-26T14:47:14.404Z,5.67
2023-03-26T14:49:58.395Z,5.13
2023-03-26T14:52:37.402Z,4.03
2023-03-26T14:55:13.453Z,1.60
2023-03-26T14:58:13.933Z,5.30
2023-03-26T15:00:56.657Z,5.13
2023-03-26T15:03:53.578Z,5.37
2023-03-26T15:06:58.495Z,4.73
2023-03-26T15:09:46.405Z,2.93
2023-03-26T15:12:29.305Z,4.23
2023-03-26T15:15:31.278Z,4.23
2023-03-26T15:18:29.896Z,4.33
2023-03-26T15:21:15.536Z,4.87
2023-03-26T15:24:16.501Z,4.30
2023-03-26T15:27:21.310Z,4.40
2023-03-26T15:30:10.710Z,4.43
2023-03-26T15:32:57.331Z,3.83
2023-03-26T15:36:15.969Z,4.43
2023-03-26T15:38:43.268Z,2.40
2023-03-26T15:41:35.522Z,3.57
2023-03-26T15:44:25.431Z,3.47
2023-03-26T15:47:33.121Z,4.43
2023-03-26T15:50:15.390Z,3.80
2023-03-26T15:53:20.435Z,3.27
2023-03-26T15:56:09.868Z,3.90
2023-03-26T15:59:02.928Z,3.40
2023-03-26T16:02:10.141Z,3.50
2023-03-26T16:04:51.948Z,3.53
2023-03-26T16:07:50.932Z,4.40
2023-03-26T16:10:40.896Z,4.10
2023-03-26T16:13:18.018Z,2.70
2023-03-26T16:15:58.715Z,2.73
2023-03-26T16:18:36.159Z,4.77
2023-03-26T16:21:31.264Z,3.40
2023-03-26T16:24:03.097Z,3.87
2023-03-26T16:27:02.819Z,2.80
2023-03-26T16:29:30.827Z,4.30
2023-03-26T16:32:15.157Z,2.57
2023-03-26T16:35:22.863Z,3.47
2023-03-26T16:38:05.914Z,4.20
2023-03-26T16:40:35.322Z,2.17
2023-03-26T16:43:11.499Z,2.80
2023-03-26T16:45:53.884Z,4.20
2023-03-26T16:48:43.430Z,3.57
2023-03-26T16:51:19.783Z,2.60
2023-03-26T16:54:02.470Z,4.13
2023-03-26T16:56:55.025Z,2.50
2023-03-26T16:59:42.349Z,2.73
2023-03-26T17:02:32.903Z,2.87
2023-03-26T17:05:19.977Z,3.50
2023-03-26T17:08:35.998Z,2.93
2023-03-26T17:11:15.630Z,4.03
2023-03-26T17:13:52.118Z,3.50
2023-03-26T17:16:26.802Z,2.93
2023-03-26T17:19:19.395Z,3.40
2023-03-26T17:22:13.999Z,3.13
2023-03-26T17:25:16.208Z,2.60
2023-03-26T17:28:00.755Z,3.20
2023-03-26T17:31:16.385Z,3.23
2023-03-26T17:33:44.044Z,2.80
2023-03-26T17:36:11.466Z,3.70
2023-03-26T17:38:45.283Z,3.73
2023-03-26T17:41:34.383Z,5.53
2023-03-26T17:44:26.310Z,2.77
2023-03-26T17:46:57.090Z,3.03
2023-03-26T17:49:33.508Z,2.63
2023-03-26T17:52:48.296Z,2.17
2023-03-26T17:55:22.341Z,2.80
2023-03-26T17:57:54.254Z,3.20
2023-03-26T18:00:42.555Z,3.37
2023-03-26T18:03:23.906Z,1.90
2023-03-26T18:05:55.987Z,1.20
2023-03-26T18:08:37.415Z,2.50
2023-03-26T18:11:22.268Z,2.87
2023-03-26T18:14:23.766Z,3.03
2023-03-26T18:17:01.959Z,3.10
2023-03-26T18:19:29.949Z,2.53
2023-03-26T18:22:00.121Z,2.40
2023-03-26T18:24:31.812Z,1.80
2023-03-26T18:27:04.907Z,2.50
2023-03-26T18:29:35.357Z,1.83
2023-03-26T18:32:09.316Z,3.53
2023-03-26T18:35:13.542Z,2.73
2023-03-26T18:37:44.402Z,2.53
2023-03-26T18:40:16.900Z,1.90
2023-03-26T18:42:47.382Z,2.77
2023-03-26T18:45:36.840Z,3.93
2023-03-26T18:48:17.974Z,3.40
2023-03-26T18:50:47.383Z,2.20
2023-03-26T18:53:23.820Z,2.63
2023-03-26T18:55:52.146Z,1.93
2023-03-26T18:58:33.325Z,1.93
2023-03-26T19:01:20.239Z,2.23
2023-03-26T19:03:53.781Z,1.53
2023-03-26T19:06:22.107Z,2.57
2023-03-26T19:08:49.736Z,3.00
2023-03-26T19:11:18.177Z,1.93
2023-03-26T19:13:58.624Z,2.80
2023-03-26T19:16:33.861Z,2.70
2023-03-26T19:19:05.285Z,2.77
2023-03-26T19:21:33.867Z,1.87
2023-03-26T19:24:02.608Z,3.33
2023-03-26T19:26:30.618Z,2.60
2023-03-26T19:28:58.773Z,2.27
2023-03-26T19:31:32.317Z,2.53
2023-03-26T19:34:18.175Z,3.27
2023-03-26T19:37:04.293Z,3.73
2023-03-26T19:40:14.661Z,1.67
2023-03-26T19:42:44.746Z,1.27
2023-03-26T19:45:18.344Z,2.60
2023-03-26T19:47:48.372Z,1.80
2023-03-26T19:50:26.123Z,1.27
2023-03-26T19:53:16.566Z,3.07
2023-03-26T19:55:59.230Z,1.87
2023-03-26T19:58:27.829Z,1.80
2023-03-26T20:00:58.129Z,2.33
2023-03-26T20:03:50.061Z,1.97
2023-03-26T20:06:23.693Z,1.97
2023-03-26T20:08:56.164Z,2.07
2023-03-26T20:11:34.297Z,1.27
2023-03-26T20:14:01.979Z,0.90
2023-03-26T20:16:32.027Z,1.40
2023-03-26T20:19:02.521Z,1.57
2023-03-26T20:21:41.614Z,1.13
2023-03-26T20:24:15.170Z,2.30
2023-03-26T20:26:43.253Z,1.80
2023-03-26T20:29:11.805Z,1.53
2023-03-26T20:31:41.916Z,1.30
2023-03-26T20:34:28.096Z,1.87
2023-03-26T20:36:57.213Z,1.90
2023-03-26T20:39:28.988Z,1.80
2023-03-26T20:41:56.864Z,2.63
2023-03-26T20:44:26.826Z,2.33
2023-03-26T20:46:54.750Z,2.13
2023-03-26T20:49:22.465Z,1.13
2023-03-26T20:51:49.935Z,2.17
2023-03-26T20:54:19.773Z,1.93
2023-03-26T20:56:49.218Z,1.57
2023-03-26T20:59:26.861Z,3.73
2023-03-26T21:01:57.191Z,1.77
2023-03-26T21:04:26.422Z,1.60
2023-03-26T21:07:00.377Z,1.10
2023-03-26T21:09:34.961Z,1.30
2023-03-26T21:12:07.193Z,1.10
2023-03-26T21:14:41.913Z,1.20
2023-03-26T21:17:23.123Z,1.57
2023-03-26T21:19:51.030Z,2.77
2023-03-26T21:22:33.882Z,1.27
2023-03-26T21:25:24.481Z,2.67
2023-03-26T21:27:55.490Z,2.00
2023-03-26T21:30:23.792Z,1.30
2023-03-26T21:32:52.149Z,2.30
2023-03-26T21:35:20.270Z,2.03
2023-03-26T21:37:51.039Z,2.63
2023-03-26T21:40:19.775Z,3.03
2023-03-26T21:42:52.449Z,1.90
2023-03-26T21:45:21.324Z,2.00
2023-03-26T21:47:50.024Z,1.37
2023-03-26T21:50:21.093Z,1.97
2023-03-26T21:52:49.984Z,3.07
2023-03-26T21:55:22.836Z,2.07
2023-03-26T21:58:20.952Z,2.27
2023-03-26T22:01:01.707Z,3.67
2023-03-26T22:03:47.286Z,1.37
2023-03-26T22:06:20.251Z,3.00
2023-03-26T22:08:47.856Z,2.20
2023-03-26T22:11:15.425Z,3.20
2023-03-26T22:13:42.906Z,5.23
2023-03-26T22:16:10.961Z,1.87
2023-03-26T22:18:38.408Z,3.67
2023-03-26T22:21:06.169Z,3.47
2023-03-26T22:23:36.523Z,1.30
2023-03-26T22:26:06.343Z,2.70
2023-03-26T22:28:33.809Z,1.23
2023-03-26T22:31:07.445Z,2.33
2023-03-26T22:33:36.147Z,3.90
2023-03-26T22:36:03.743Z,2.33
2023-03-26T22:38:31.481Z,2.50
2023-03-26T22:40:59.182Z,4.30
2023-03-26T22:43:26.767Z,1.90
2023-03-26T22:45:55.119Z,3.03
2023-03-26T22:48:23.907Z,1.90
2023-03-26T22:51:08.634Z,1.50
2023-03-26T22:53:36.911Z,2.83
2023-03-26T22:56:04.811Z,1.70
2023-03-26T22:58:33.877Z,3.37
2023-03-26T23:01:08.705Z,4.97
2023-03-26T23:03:37.202Z,3.17
2023-03-26T23:06:08.095Z,1.47
2023-03-26T23:08:38.110Z,3.13
2023-03-26T23:11:10.665Z,4.03
2023-03-26T23:13:38.168Z,1.37
2023-03-26T23:16:06.489Z,5.30
2023-03-26T23:18:34.430Z,2.37
2023-03-26T23:21:01.911Z,1.30
2023-03-26T23:23:31.656Z,2.47
2023-03-26T23:26:01.966Z,1.63
2023-03-26T23:28:32.392Z,1.60
2023-03-26T23:31:02.387Z,2.13
2023-03-26T23:33:32.301Z,3.87
2023-03-26T23:36:00.469Z,2.40
2023-03-26T23:38:29.325Z,3.07
2023-03-26T23:41:17.855Z,0.87
2023-03-26T23:43:53.784Z,2.63
2023-03-26T23:46:30.882Z,1.37
2023-03-26T23:49:05.085Z,2.47
2023-03-26T23:51:32.876Z,2.07
2023-03-26T23:54:01.632Z,2.17
2023-03-26T23:56:32.606Z,1.53
2023-03-26T23:59:00.908Z,2.77
